Time;durP1;ratioP1;P1;durP2;ratioP2;P2;SDS_P1;SDS_P2;PMS_P1;PMS_P2;Temp;Humidity;BMP_temperature;BMP_pressure;BME280_temperature;BME280_humidity;BME280_pressure;Samples;Min_cycle;Max_cycle;Signal;HPM_P1;HPM_P2
2023/06/12 00:00:51;;;;;;;15.00;10.10;;;14.80;99.90;;;;;;5076368;28;20225;-72
2023/06/12 00:03:20;;;;;;;14.40;8.47;;;14.50;99.90;;;;;;5056308;28;20200;-72
2023/06/12 00:05:47;;;;;;;10.83;8.43;;;14.10;99.90;;;;;;5060832;28;20665;-71
2023/06/12 00:08:17;;;;;;;14.03;8.43;;;13.80;99.90;;;;;;5055252;28;20241;-72
2023/06/12 00:10:46;;;;;;;8.80;7.07;;;13.40;99.90;;;;;;5071115;28;20650;-74
2023/06/12 00:13:14;;;;;;;9.90;7.23;;;13.10;99.90;;;;;;5062911;28;20193;-72
2023/06/12 00:15:41;;;;;;;10.83;7.57;;;13.10;99.90;;;;;;5070271;28;20191;-72
2023/06/12 00:18:08;;;;;;;14.27;8.63;;;13.10;99.90;;;;;;5063042;28;20629;-72
2023/06/12 00:20:36;;;;;;;18.10;9.83;;;13.20;99.90;;;;;;5053842;28;20202;-72
2023/06/12 00:23:03;;;;;;;17.23;12.03;;;13.70;99.90;;;;;;5054855;28;20218;-72
2023/06/12 00:25:30;;;;;;;14.93;11.67;;;14.30;99.90;;;;;;5055847;28;20173;-72
2023/06/12 00:27:58;;;;;;;21.10;13.00;;;14.60;99.90;;;;;;5054862;28;20188;-72
2023/06/12 00:30:25;;;;;;;16.60;11.00;;;14.90;99.90;;;;;;5054782;28;20192;-72
2023/06/12 00:32:52;;;;;;;18.27;10.60;;;15.20;99.90;;;;;;5073260;28;20185;-71
2023/06/12 00:35:20;;;;;;;18.97;12.97;;;16.10;99.90;;;;;;5074727;28;20191;-73
2023/06/12 00:37:48;;;;;;;22.57;12.33;;;16.50;99.90;;;;;;5074423;28;20652;-72
2023/06/12 00:40:16;;;;;;;21.33;12.40;;;16.80;99.90;;;;;;5073831;28;20195;-72
2023/06/12 00:42:46;;;;;;;22.10;12.60;;;16.40;99.90;;;;;;5072207;28;20226;-72
2023/06/12 00:45:16;;;;;;;19.60;13.20;;;16.00;99.90;;;;;;5054468;28;20176;-72
2023/06/12 00:47:46;;;;;;;18.43;13.57;;;15.20;99.90;;;;;;5062590;28;20184;-73
2023/06/12 00:50:14;;;;;;;16.63;12.63;;;14.80;99.90;;;;;;5075015;28;20547;-71
2023/06/12 00:52:45;;;;;;;21.03;13.17;;;14.50;99.90;;;;;;5063822;28;20193;-73
2023/06/12 00:55:14;;;;;;;17.80;11.53;;;14.80;99.90;;;;;;5068447;28;20191;-73
2023/06/12 00:57:43;;;;;;;14.67;9.10;;;15.40;99.90;;;;;;5058019;28;20196;-73
2023/06/12 01:00:13;;;;;;;16.90;10.83;;;16.10;99.90;;;;;;5063285;28;20642;-72
2023/06/12 01:02:43;;;;;;;19.97;10.70;;;17.20;99.90;;;;;;5054091;28;20265;-72
2023/06/12 01:05:16;;;;;;;15.83;8.77;;;17.70;99.90;;;;;;5066882;28;20638;-72
2023/06/12 01:08:16;;;;;;;16.43;8.30;;;17.80;99.90;;;;;;5073996;28;20220;-72
2023/06/12 01:10:58;;;;;;;14.80;7.90;;;17.20;99.90;;;;;;5033072;28;20280;-71
2023/06/12 01:13:26;;;;;;;18.23;9.50;;;16.40;99.90;;;;;;5056123;28;20212;-70
2023/06/12 01:15:53;;;;;;;13.30;9.00;;;15.90;99.90;;;;;;5058834;28;20173;-71
2023/06/12 01:18:21;;;;;;;14.43;9.13;;;15.60;99.90;;;;;;5064962;28;20232;-71
2023/06/12 01:20:53;;;;;;;20.13;9.70;;;15.70;99.90;;;;;;5051762;28;20188;-72
2023/06/12 01:23:38;;;;;;;16.63;9.27;;;15.90;99.90;;;;;;5055664;28;20223;-71
2023/06/12 01:26:33;;;;;;;17.23;8.90;;;16.30;99.90;;;;;;5073838;28;20172;-72
2023/06/12 01:29:40;;;;;;;22.60;8.67;;;17.00;99.90;;;;;;5073746;28;20658;-71
2023/06/12 01:32:18;;;;;;;16.73;8.30;;;18.10;99.90;;;;;;5033265;28;20588;-71
2023/06/12 01:34:58;;;;;;;16.53;7.90;;;18.30;99.90;;;;;;5054724;28;20271;-72
2023/06/12 01:37:31;;;;;;;13.83;7.43;;;18.00;99.90;;;;;;5054663;28;20709;-71
2023/06/12 01:40:01;;;;;;;10.73;6.53;;;17.30;99.90;;;;;;5053308;28;20193;-71
2023/06/12 01:42:31;;;;;;;16.77;8.53;;;17.10;99.90;;;;;;5053635;28;20284;-72
2023/06/12 01:44:58;;;;;;;18.80;8.27;;;17.10;99.90;;;;;;5053313;28;20269;-73
2023/06/12 01:47:25;;;;;;;14.73;7.80;;;17.00;99.90;;;;;;5055911;28;20195;-72
2023/06/12 01:49:53;;;;;;;14.33;8.00;;;16.70;99.90;;;;;;5073379;28;20657;-73
2023/06/12 01:52:20;;;;;;;20.23;7.67;;;16.00;99.90;;;;;;5065931;28;20234;-73
2023/06/12 01:54:48;;;;;;;11.90;6.93;;;15.80;99.90;;;;;;5053278;28;20207;-72
2023/06/12 01:57:19;;;;;;;14.53;7.30;;;15.80;99.90;;;;;;5053269;28;20184;-70
2023/06/12 01:59:51;;;;;;;13.77;7.13;;;16.00;99.90;;;;;;5053296;28;20190;-73
2023/06/12 02:02:18;;;;;;;11.87;7.10;;;16.40;99.90;;;;;;5052986;28;20212;-72
2023/06/12 02:04:46;;;;;;;16.23;7.63;;;16.70;99.90;;;;;;5049991;28;20249;-72
2023/06/12 02:07:14;;;;;;;13.77;6.80;;;16.80;99.90;;;;;;5053152;28;20691;-72
2023/06/12 02:09:41;;;;;;;11.23;6.20;;;16.90;99.90;;;;;;5069637;28;20376;-72
2023/06/12 02:12:09;;;;;;;15.77;7.70;;;17.00;99.90;;;;;;5072782;28;20259;-71
2023/06/12 02:14:37;;;;;;;14.17;7.03;;;17.10;99.90;;;;;;5072712;28;20168;-71
2023/06/12 02:17:05;;;;;;;15.30;7.57;;;17.20;99.90;;;;;;5072243;28;20192;-72
2023/06/12 02:19:33;;;;;;;11.07;7.00;;;17.80;99.90;;;;;;5072723;28;20538;-73
2023/06/12 02:22:00;;;;;;;8.60;6.17;;;18.50;99.90;;;;;;5066938;28;20611;-72
2023/06/12 02:24:30;;;;;;;9.40;6.13;;;19.10;99.90;;;;;;5052885;28;20566;-69
2023/06/12 02:26:57;;;;;;;12.63;5.93;;;19.60;99.90;;;;;;5062078;28;20187;-71
2023/06/12 02:29:25;;;;;;;9.27;5.83;;;19.50;99.90;;;;;;5071826;28;20676;-71
2023/06/12 02:31:53;;;;;;;30.70;17.00;;;20.00;99.90;;;;;;5072464;28;20179;-71
2023/06/12 02:34:20;;;;;;;10.20;6.33;;;20.40;99.90;;;;;;5072576;28;20179;-72
2023/06/12 02:36:48;;;;;;;7.80;5.60;;;21.10;99.90;;;;;;5072323;28;20696;-72
2023/06/12 02:39:15;;;;;;;9.27;5.30;;;21.60;99.90;;;;;;5072428;28;20258;-71
2023/06/12 02:41:45;;;;;;;8.70;4.90;;;21.70;99.90;;;;;;5072173;28;20195;-72
2023/06/12 02:44:12;;;;;;;7.10;4.90;;;21.80;99.90;;;;;;5069091;28;20263;-71
2023/06/12 02:46:57;;;;;;;8.73;5.30;;;21.10;99.90;;;;;;5052133;28;20811;-72
2023/06/12 02:49:27;;;;;;;7.97;4.80;;;20.00;99.90;;;;;;5052128;28;20573;-72
2023/06/12 02:51:54;;;;;;;9.53;5.80;;;19.60;99.90;;;;;;5051861;28;20212;-69
2023/06/12 02:54:24;;;;;;;8.00;4.83;;;19.70;99.90;;;;;;5052007;28;20645;-72
2023/06/12 02:56:52;;;;;;;11.73;4.93;;;20.30;99.90;;;;;;5051915;28;20187;-69
2023/06/12 02:59:23;;;;;;;12.80;6.90;;;20.40;99.90;;;;;;5061001;28;20176;-71
2023/06/12 03:01:51;;;;;;;8.93;5.10;;;20.60;99.90;;;;;;5071604;28;20249;-71
2023/06/12 03:04:20;;;;;;;7.87;5.07;;;21.50;99.90;;;;;;5069500;28;20187;-71
2023/06/12 03:06:51;;;;;;;9.23;4.70;;;22.50;99.90;;;;;;5071528;28;20179;-71
2023/06/12 03:09:19;;;;;;;10.70;5.27;;;22.90;99.90;;;;;;5075880;28;20172;-73
2023/06/12 03:11:52;;;;;;;10.97;6.67;;;22.80;99.90;;;;;;5066303;28;20194;-72
2023/06/12 03:14:24;;;;;;;14.03;5.23;;;22.70;99.90;;;;;;5071431;28;20663;-72
2023/06/12 03:16:51;;;;;;;7.97;5.43;;;22.30;99.90;;;;;;5071619;28;20226;-72
2023/06/12 03:19:19;;;;;;;9.37;5.50;;;21.90;99.90;;;;;;5071604;28;20232;-73
2023/06/12 03:25:18;;;;;;;7.33;4.73;;;22.30;99.90;;;;;;5067681;28;20204;-72
2023/06/12 03:27:46;;;;;;;8.83;4.40;;;21.80;99.90;;;;;;5053246;28;20202;-73
2023/06/12 03:30:14;;;;;;;8.60;4.47;;;22.00;99.90;;;;;;5071622;28;20172;-69
2023/06/12 03:32:41;;;;;;;9.17;5.10;;;22.70;99.90;;;;;;5071608;28;20580;-73
2023/06/12 03:35:09;;;;;;;8.93;4.57;;;23.10;99.90;;;;;;5071236;28;20184;-73
2023/06/12 03:37:36;;;;;;;6.00;3.97;;;23.40;99.90;;;;;;5071476;28;20175;-71
2023/06/12 03:40:04;;;;;;;7.47;3.80;;;24.00;99.90;;;;;;5071373;28;20176;-72
2023/06/12 03:42:32;;;;;;;6.70;3.30;;;24.10;99.90;;;;;;5071115;28;20276;-71
2023/06/12 03:44:59;;;;;;;5.87;3.30;;;24.00;99.90;;;;;;5069098;28;20175;-72
2023/06/12 03:47:27;;;;;;;4.77;1.90;;;24.10;99.90;;;;;;5071171;28;20228;-72
2023/06/12 03:49:55;;;;;;;6.43;2.00;;;24.50;99.90;;;;;;5071434;28;20172;-72
2023/06/12 03:52:22;;;;;;;4.40;1.90;;;24.30;99.90;;;;;;5070713;28;20530;-73
2023/06/12 03:54:49;;;;;;;5.03;2.10;;;24.00;99.90;;;;;;5063585;28;20180;-70
2023/06/12 03:57:17;;;;;;;8.13;5.90;;;23.10;99.90;;;;;;5064661;28;20183;-70
2023/06/12 03:59:44;;;;;;;5.13;2.20;;;22.80;99.90;;;;;;5051226;28;20183;-73
2023/06/12 04:02:12;;;;;;;4.03;1.80;;;22.50;99.90;;;;;;5051089;28;20669;-69
2023/06/12 04:04:39;;;;;;;5.00;2.03;;;22.70;99.90;;;;;;5064454;28;20199;-73
2023/06/12 04:07:06;;;;;;;5.50;2.50;;;23.00;99.90;;;;;;5052888;28;20176;-71
2023/06/12 04:09:34;;;;;;;5.43;2.87;;;23.10;99.90;;;;;;5071293;28;20175;-70
2023/06/12 04:12:02;;;;;;;3.37;1.40;;;23.20;99.90;;;;;;5071042;28;20238;-70
2023/06/12 04:14:29;;;;;;;4.33;1.90;;;23.70;99.90;;;;;;5070783;28;20187;-71
2023/06/12 04:16:57;;;;;;;8.70;1.80;;;23.80;99.90;;;;;;5071110;28;20207;-70
2023/06/12 04:22:47;;;;;;;1.50;1.30;;;23.10;99.90;;;;;;5070474;28;20227;-69
2023/06/12 04:25:15;;;;;;;7.70;2.50;;;23.20;99.90;;;;;;5052308;28;20559;-71
2023/06/12 04:27:42;;;;;;;6.20;2.57;;;23.10;99.90;;;;;;5071222;28;20609;-72
2023/06/12 04:30:11;;;;;;;7.03;1.47;;;22.90;99.90;;;;;;5070959;28;20199;-72
2023/06/12 04:32:38;;;;;;;2.60;1.70;;;23.30;99.90;;;;;;5070511;28;20275;-71
2023/06/12 04:35:06;;;;;;;2.10;1.30;;;23.40;99.90;;;;;;5070902;28;20578;-74
2023/06/12 04:37:33;;;;;;;2.60;1.67;;;23.40;99.90;;;;;;5070414;28;20216;-74
2023/06/12 04:40:01;;;;;;;4.33;1.70;;;23.00;99.90;;;;;;5070667;28;20259;-74
2023/06/12 04:42:31;;;;;;;3.07;1.70;;;23.20;99.90;;;;;;5070409;28;20262;-73
2023/06/12 04:44:59;;;;;;;4.40;1.67;;;23.20;99.90;;;;;;5070759;28;20641;-73
2023/06/12 04:47:28;;;;;;;2.40;1.60;;;22.90;99.90;;;;;;5070655;28;20188;-75
2023/06/12 04:49:57;;;;;;;10.27;6.17;;;23.10;99.90;;;;;;5070746;28;20600;-74
2023/06/12 04:52:25;;;;;;;2.93;1.53;;;22.80;99.90;;;;;;5071730;28;20179;-73
2023/06/12 04:54:53;;;;;;;2.77;1.37;;;22.10;99.90;;;;;;5074388;28;20180;-74
2023/06/12 04:57:20;;;;;;;2.50;1.43;;;21.60;99.90;;;;;;5073771;28;20180;-73
2023/06/12 04:59:48;;;;;;;2.60;1.33;;;21.20;99.90;;;;;;5074444;28;20179;-73
2023/06/12 05:02:16;;;;;;;4.87;1.57;;;20.80;99.90;;;;;;5073725;28;20215;-75
2023/06/12 05:04:46;;;;;;;3.50;1.67;;;20.50;99.90;;;;;;5074155;28;20601;-74
2023/06/12 05:07:21;;;;;;;4.57;1.77;;;20.10;99.90;;;;;;5074054;28;20652;-74
2023/06/12 05:09:48;;;;;;;4.60;1.90;;;20.10;99.90;;;;;;5074182;28;20560;-73
2023/06/12 05:12:15;;;;;;;3.40;1.60;;;20.00;99.90;;;;;;5074131;28;20246;-75
2023/06/12 05:14:43;;;;;;;4.47;1.67;;;19.90;99.90;;;;;;5073696;28;20180;-75
2023/06/12 05:17:14;;;;;;;1.63;1.30;;;19.80;99.90;;;;;;5073796;28;20561;-75
2023/06/12 05:19:43;;;;;;;4.97;2.03;;;19.70;99.90;;;;;;5074082;28;20704;-74
2023/06/12 05:22:10;;;;;;;3.47;1.87;;;19.80;99.90;;;;;;5073579;28;20226;-71
2023/06/12 05:24:38;;;;;;;3.93;1.80;;;19.70;99.90;;;;;;5058663;28;20206;-74
2023/06/12 05:27:08;;;;;;;4.73;1.40;;;19.70;99.90;;;;;;5064105;28;20194;-71
2023/06/12 05:29:36;;;;;;;3.33;1.87;;;19.50;99.90;;;;;;5055699;28;20180;-73
2023/06/12 05:32:05;;;;;;;3.33;1.27;;;19.40;99.90;;;;;;5067179;28;20222;-75
2023/06/12 05:34:32;;;;;;;3.83;1.70;;;19.30;99.90;;;;;;5053626;28;20255;-73
2023/06/12 05:36:59;;;;;;;3.63;2.00;;;19.30;99.90;;;;;;5066530;28;20186;-72
2023/06/12 05:39:27;;;;;;;5.23;2.10;;;19.30;99.90;;;;;;5073544;28;20185;-71
2023/06/12 05:41:54;;;;;;;7.00;2.23;;;19.30;99.90;;;;;;5073337;28;20199;-71
2023/06/12 05:44:22;;;;;;;4.67;1.97;;;19.20;99.90;;;;;;5055436;28;20592;-70
2023/06/12 05:46:52;;;;;;;2.70;1.93;;;19.10;99.90;;;;;;5061527;28;20297;-70
2023/06/12 05:49:20;;;;;;;3.70;1.37;;;19.30;99.90;;;;;;5053355;28;20213;-72
2023/06/12 05:51:47;;;;;;;8.87;2.40;;;19.30;99.90;;;;;;5035263;28;20671;-71
2023/06/12 05:54:14;;;;;;;4.53;2.53;;;19.30;99.90;;;;;;5057039;28;20193;-73
2023/06/12 05:56:42;;;;;;;7.10;2.70;;;19.30;99.90;;;;;;5062565;28;20184;-73
2023/06/12 05:59:09;;;;;;;5.23;2.57;;;19.10;99.90;;;;;;5053395;28;20227;-72
2023/06/12 06:01:36;;;;;;;6.17;2.60;;;19.00;99.90;;;;;;5035272;28;20672;-73
2023/06/12 06:04:05;;;;;;;8.93;2.50;;;18.90;99.90;;;;;;5051814;28;20750;-69
2023/06/12 06:06:33;;;;;;;6.90;2.73;;;18.80;99.90;;;;;;5061518;28;20645;-71
2023/06/12 06:09:00;;;;;;;9.40;2.10;;;18.60;99.90;;;;;;5057360;28;20177;-70
2023/06/12 06:11:28;;;;;;;4.43;2.07;;;18.50;99.90;;;;;;5053153;28;20180;-70
2023/06/12 06:13:55;;;;;;;5.70;2.13;;;18.30;99.90;;;;;;5053714;28;20552;-73
2023/06/12 06:16:23;;;;;;;4.40;2.47;;;18.10;99.90;;;;;;5052835;28;20183;-74
2023/06/12 06:18:50;;;;;;;6.37;3.53;;;17.90;99.90;;;;;;5025733;28;20318;-73
2023/06/12 06:21:18;;;;;;;5.83;2.73;;;17.80;99.90;;;;;;5052474;28;20188;-71
2023/06/12 06:23:45;;;;;;;6.53;3.10;;;17.70;99.90;;;;;;5051785;28;20223;-71
2023/06/12 06:26:12;;;;;;;9.23;3.63;;;17.60;99.90;;;;;;5052323;28;20673;-72
2023/06/12 06:28:40;;;;;;;8.47;4.63;;;17.50;99.90;;;;;;5052356;28;20275;-73
2023/06/12 06:31:08;;;;;;;6.60;4.63;;;17.40;99.90;;;;;;5051786;28;20203;-70
2023/06/12 06:33:36;;;;;;;7.50;4.87;;;17.40;99.90;;;;;;5052446;28;20671;-71
2023/06/12 06:36:04;;;;;;;9.50;5.37;;;17.30;99.90;;;;;;5052405;28;20188;-71
2023/06/12 06:38:31;;;;;;;15.10;13.00;;;17.30;99.90;;;;;;5052407;28;20239;-72
2023/06/12 06:40:59;;;;;;;17.43;11.40;;;17.30;99.90;;;;;;5053762;28;20275;-72
2023/06/12 06:43:26;;;;;;;15.63;7.33;;;17.30;99.90;;;;;;5053201;28;20247;-75
2023/06/12 06:45:53;;;;;;;10.03;7.00;;;17.30;99.90;;;;;;5054513;28;20225;-72
2023/06/12 06:48:21;;;;;;;11.63;8.10;;;17.20;99.90;;;;;;5053611;28;20181;-71
2023/06/12 06:50:48;;;;;;;9.70;7.33;;;17.10;99.90;;;;;;5053837;28;20271;-70
2023/06/12 06:53:15;;;;;;;12.03;6.33;;;16.90;99.90;;;;;;5053001;28;20176;-72
2023/06/12 06:55:43;;;;;;;9.67;6.00;;;16.90;99.90;;;;;;5052527;28;20193;-69
2023/06/12 06:58:10;;;;;;;12.07;5.47;;;16.80;99.90;;;;;;5052929;28;20255;-72
2023/06/12 07:00:38;;;;;;;8.50;5.47;;;16.70;99.90;;;;;;5037876;28;20263;-72
2023/06/12 07:03:05;;;;;;;11.43;5.17;;;16.50;99.90;;;;;;5053504;28;20212;-71
2023/06/12 07:05:33;;;;;;;8.90;4.83;;;16.40;99.90;;;;;;5054546;28;20256;-73
2023/06/12 07:08:00;;;;;;;8.73;5.63;;;16.30;99.90;;;;;;5053362;28;20207;-74
2023/06/12 07:10:28;;;;;;;7.90;5.27;;;16.30;99.90;;;;;;5056191;28;20168;-73
2023/06/12 07:12:58;;;;;;;14.33;6.47;;;16.30;99.90;;;;;;5057159;28;20667;-73
2023/06/12 07:15:25;;;;;;;9.00;5.17;;;16.20;99.90;;;;;;5055441;28;20173;-74
2023/06/12 07:17:53;;;;;;;8.90;5.23;;;16.10;99.90;;;;;;5045748;28;20233;-72
2023/06/12 07:20:21;;;;;;;11.70;5.33;;;16.00;99.90;;;;;;5076660;28;20191;-73
2023/06/12 07:22:49;;;;;;;10.70;5.53;;;16.00;99.90;;;;;;5059181;28;20253;-73
2023/06/12 07:25:16;;;;;;;10.23;6.20;;;16.00;99.90;;;;;;5058498;28;20179;-73
2023/06/12 07:27:44;;;;;;;12.87;7.40;;;15.90;99.90;;;;;;5072836;28;20186;-73
2023/06/12 07:30:11;;;;;;;13.90;7.80;;;15.90;99.90;;;;;;5072303;28;20179;-71
2023/06/12 07:32:39;;;;;;;11.23;7.40;;;15.80;99.90;;;;;;5072989;28;20190;-73
2023/06/12 07:35:06;;;;;;;10.20;6.27;;;15.70;99.90;;;;;;5073136;28;20195;-73
2023/06/12 07:37:35;;;;;;;10.70;6.00;;;15.60;99.90;;;;;;5073615;28;20175;-73
2023/06/12 07:40:08;;;;;;;9.60;6.80;;;15.60;99.90;;;;;;5073113;28;20168;-69
2023/06/12 07:42:35;;;;;;;11.03;6.13;;;15.50;99.90;;;;;;5072774;28;20236;-73
2023/06/12 07:45:03;;;;;;;8.30;5.77;;;15.40;99.90;;;;;;5073162;28;20574;-73
2023/06/12 07:47:30;;;;;;;11.97;6.40;;;15.40;99.90;;;;;;5072989;28;20175;-73
2023/06/12 07:49:58;;;;;;;10.47;6.10;;;15.30;99.90;;;;;;5072926;28;20262;-73
2023/06/12 07:52:26;;;;;;;9.53;6.30;;;15.30;99.90;;;;;;5072997;28;20176;-71
2023/06/12 07:54:53;;;;;;;16.37;6.10;;;15.30;99.90;;;;;;5073076;28;20184;-71
2023/06/12 07:57:21;;;;;;;18.07;9.97;;;15.20;99.90;;;;;;5072917;28;20283;-71
2023/06/12 07:59:48;;;;;;;34.27;17.77;;;15.20;99.90;;;;;;5072932;28;20191;-72
2023/06/12 08:02:16;;;;;;;29.93;15.60;;;15.20;99.90;;;;;;5072739;28;20249;-73
2023/06/12 08:04:44;;;;;;;16.47;11.33;;;15.20;99.90;;;;;;5072764;28;20194;-73
2023/06/12 08:07:15;;;;;;;16.43;10.70;;;15.20;99.90;;;;;;5072966;28;20168;-73
2023/06/12 08:09:43;;;;;;;18.47;11.67;;;15.20;99.90;;;;;;5072942;28;20629;-73
2023/06/12 08:12:11;;;;;;;15.23;9.03;;;15.20;99.90;;;;;;5072806;28;20266;-73
2023/06/12 08:14:39;;;;;;;13.40;8.30;;;15.10;99.90;;;;;;5072553;28;20214;-73
2023/06/12 08:17:06;;;;;;;12.33;8.57;;;15.00;99.90;;;;;;5072460;28;20180;-72
2023/06/12 08:19:34;;;;;;;15.37;9.73;;;14.90;99.90;;;;;;5072819;28;20195;-73
2023/06/12 08:22:03;;;;;;;19.50;11.63;;;14.80;99.90;;;;;;5072256;28;20191;-73
2023/06/12 08:24:31;;;;;;;17.87;11.40;;;14.80;99.90;;;;;;5072783;28;20176;-74
2023/06/12 08:27:00;;;;;;;22.87;11.63;;;14.80;99.90;;;;;;5073217;28;20180;-74
2023/06/12 08:29:27;;;;;;;18.43;10.80;;;14.90;99.90;;;;;;5058697;28;20194;-73
2023/06/12 08:31:58;;;;;;;17.13;11.07;;;14.70;99.90;;;;;;5076751;28;20203;-73
2023/06/12 08:34:26;;;;;;;19.87;11.27;;;14.50;99.90;;;;;;5076419;28;20172;-73
2023/06/12 08:36:56;;;;;;;19.10;12.03;;;14.30;99.90;;;;;;5076606;28;20233;-74
2023/06/12 08:39:23;;;;;;;17.57;11.43;;;14.20;99.90;;;;;;5083167;28;20266;-73
2023/06/12 08:41:59;;;;;;;20.80;12.63;;;14.10;99.90;;;;;;5080149;28;20171;-72
2023/06/12 08:44:27;;;;;;;16.87;11.47;;;14.00;99.90;;;;;;5076585;28;20171;-71
2023/06/12 08:46:56;;;;;;;21.23;11.30;;;13.90;99.90;;;;;;5078773;28;20648;-73
2023/06/12 08:49:25;;;;;;;21.33;11.40;;;13.80;99.90;;;;;;5076695;28;20259;-70
2023/06/12 08:51:52;;;;;;;18.87;10.70;;;13.90;99.90;;;;;;5076214;28;20186;-74
2023/06/12 08:54:20;;;;;;;13.17;10.17;;;13.90;99.90;;;;;;5058337;28;20618;-72
2023/06/12 08:56:48;;;;;;;17.33;11.07;;;13.90;99.90;;;;;;5076024;28;20172;-72
2023/06/12 08:59:16;;;;;;;14.23;10.30;;;13.90;99.90;;;;;;5076100;28;20537;-72
2023/06/12 09:01:45;;;;;;;19.97;12.03;;;14.00;99.90;;;;;;5076019;28;20176;-73
2023/06/12 09:04:28;;;;;;;18.57;13.33;;;14.00;99.90;;;;;;5075555;28;20216;-74
2023/06/12 09:07:03;;;;;;;19.43;13.83;;;14.10;99.90;;;;;;5057910;28;20276;-72
2023/06/12 09:09:41;;;;;;;20.77;13.40;;;14.20;99.90;;;;;;5075137;28;20182;-74
2023/06/12 09:12:15;;;;;;;21.70;13.97;;;14.20;99.90;;;;;;5075392;28;20180;-73
2023/06/12 09:14:44;;;;;;;17.73;12.37;;;14.20;99.90;;;;;;5074583;28;20172;-72
2023/06/12 09:17:12;;;;;;;19.43;12.90;;;14.20;99.90;;;;;;5055490;28;20632;-72
2023/06/12 09:19:45;;;;;;;19.83;13.23;;;14.20;99.90;;;;;;5054860;28;20645;-73
2023/06/12 09:22:13;;;;;;;21.00;13.27;;;14.20;99.90;;;;;;5054971;28;20204;-71
2023/06/12 09:24:41;;;;;;;22.73;13.70;;;14.20;99.90;;;;;;5054633;28;20275;-72
2023/06/12 09:27:08;;;;;;;21.93;12.83;;;14.20;99.90;;;;;;5054873;28;20211;-74
2023/06/12 09:29:42;;;;;;;17.43;11.63;;;14.20;99.90;;;;;;5055109;28;20173;-73
2023/06/12 09:32:16;;;;;;;18.57;12.73;;;14.20;99.90;;;;;;5055173;28;20184;-73
2023/06/12 09:34:49;;;;;;;18.40;12.10;;;14.20;99.90;;;;;;5054972;28;20172;-73
2023/06/12 09:37:17;;;;;;;21.57;12.47;;;14.20;99.90;;;;;;5055379;28;20175;-72
2023/06/12 09:39:45;;;;;;;20.43;13.10;;;14.10;99.90;;;;;;5054625;28;20169;-73
2023/06/12 09:42:16;;;;;;;19.07;12.77;;;14.20;99.90;;;;;;5054718;28;20261;-73
2023/06/12 09:44:43;;;;;;;16.73;11.77;;;14.20;99.90;;;;;;5054783;28;20185;-73
2023/06/12 09:47:12;;;;;;;19.23;12.67;;;14.20;99.90;;;;;;5054727;28;20169;-73
2023/06/12 09:49:40;;;;;;;18.67;12.77;;;14.20;99.90;;;;;;5054668;28;20187;-74
2023/06/12 09:52:08;;;;;;;16.30;11.83;;;14.20;99.90;;;;;;5054645;28;20191;-74
2023/06/12 09:54:35;;;;;;;22.73;12.83;;;14.20;99.90;;;;;;5054656;28;20182;-74
2023/06/12 09:57:07;;;;;;;17.77;12.10;;;14.20;99.90;;;;;;5054403;28;20200;-72
2023/06/12 09:59:35;;;;;;;16.73;11.03;;;14.20;99.90;;;;;;5054193;28;20676;-73
2023/06/12 10:02:17;;;;;;;17.37;11.00;;;14.20;99.90;;;;;;5054158;28;20179;-73
2023/06/12 10:04:59;;;;;;;17.33;12.37;;;14.10;99.90;;;;;;5054135;28;20218;-73
2023/06/12 10:07:32;;;;;;;17.80;11.60;;;14.10;99.90;;;;;;5036489;28;20542;-72
2023/06/12 10:10:02;;;;;;;18.57;11.00;;;14.10;99.90;;;;;;5054155;28;20184;-73
2023/06/12 10:12:31;;;;;;;17.23;10.80;;;14.20;99.90;;;;;;5054128;28;20536;-74
2023/06/12 10:14:58;;;;;;;14.47;9.60;;;14.20;99.90;;;;;;5054263;28;20688;-73
2023/06/12 10:17:28;;;;;;;16.83;10.13;;;14.20;99.90;;;;;;5054201;28;21042;-73
2023/06/12 10:19:57;;;;;;;12.97;9.20;;;14.30;99.90;;;;;;5054569;28;20200;-73
2023/06/12 10:22:24;;;;;;;25.57;13.10;;;14.30;99.90;;;;;;5053805;28;20208;-73
2023/06/12 10:24:52;;;;;;;19.90;12.67;;;14.20;99.90;;;;;;5054122;28;20180;-73
2023/06/12 10:27:19;;;;;;;18.50;11.03;;;14.20;99.90;;;;;;5036042;28;20550;-73
2023/06/12 10:29:59;;;;;;;18.30;11.43;;;14.20;99.90;;;;;;5053885;28;20637;-73
2023/06/12 10:32:32;;;;;;;23.10;13.50;;;14.30;99.90;;;;;;5053674;28;20637;-73
2023/06/12 10:35:01;;;;;;;18.60;10.30;;;14.30;99.90;;;;;;5054200;28;20181;-73
2023/06/12 10:37:53;;;;;;;14.40;9.60;;;14.40;99.90;;;;;;5053330;28;20552;-74
2023/06/12 10:40:21;;;;;;;14.93;8.77;;;14.40;99.90;;;;;;5053681;28;20180;-73
2023/06/12 10:42:55;;;;;;;21.83;11.10;;;14.40;99.90;;;;;;5053621;28;20296;-72
2023/06/12 10:45:28;;;;;;;19.90;11.40;;;14.30;99.90;;;;;;5053425;28;20182;-73
2023/06/12 10:50:36;;;;;;;17.83;9.57;;;14.30;99.90;;;;;;5053118;28;20222;-74
2023/06/12 10:53:05;;;;;;;13.13;8.40;;;14.30;99.90;;;;;;5053511;28;20239;-73
2023/06/12 10:55:37;;;;;;;14.57;9.20;;;14.30;99.90;;;;;;5053407;28;20169;-74
2023/06/12 10:58:07;;;;;;;17.23;9.30;;;14.20;99.90;;;;;;5035479;28;20192;-73
2023/06/12 11:00:36;;;;;;;18.43;9.40;;;14.20;99.90;;;;;;5053046;28;20629;-72
2023/06/12 11:03:11;;;;;;;12.27;8.57;;;14.20;99.90;;;;;;5053421;28;20211;-73
2023/06/12 11:05:45;;;;;;;14.50;9.57;;;14.30;99.90;;;;;;5053520;28;20236;-73
2023/06/12 11:08:12;;;;;;;18.27;9.40;;;14.20;99.90;;;;;;5052380;28;20180;-73
2023/06/12 11:10:40;;;;;;;13.40;8.37;;;14.20;99.90;;;;;;5052468;28;20576;-73
2023/06/12 11:13:07;;;;;;;11.90;8.77;;;14.20;99.90;;;;;;5052981;28;20238;-73
2023/06/12 11:15:54;;;;;;;14.43;8.53;;;14.20;99.90;;;;;;5035302;28;20188;-72
2023/06/12 11:18:22;;;;;;;12.90;8.57;;;14.20;99.90;;;;;;5046151;28;20234;-73
2023/06/12 11:20:56;;;;;;;35.67;19.63;;;14.10;99.90;;;;;;5072794;28;20533;-72
2023/06/12 11:23:25;;;;;;;20.50;13.27;;;14.10;99.90;;;;;;5072916;28;20242;-73
2023/06/12 11:25:55;;;;;;;12.37;8.80;;;14.10;99.90;;;;;;5072264;28;20679;-73
2023/06/12 11:28:24;;;;;;;13.37;8.40;;;14.20;99.90;;;;;;5072928;28;20176;-72
2023/06/12 11:30:53;;;;;;;14.53;8.97;;;14.20;99.90;;;;;;5072905;28;20592;-73
2023/06/12 11:33:22;;;;;;;15.27;8.27;;;14.20;99.90;;;;;;5072460;28;20184;-74
2023/06/12 11:35:57;;;;;;;11.23;7.87;;;14.20;99.90;;;;;;5072517;28;20197;-74
2023/06/12 11:38:25;;;;;;;16.20;9.77;;;14.20;99.90;;;;;;5073093;28;20634;-75
2023/06/12 11:40:53;;;;;;;16.33;9.43;;;14.20;99.90;;;;;;5072775;28;20173;-74
2023/06/12 11:43:26;;;;;;;13.60;8.83;;;14.20;99.90;;;;;;5072240;28;20250;-71
2023/06/12 11:45:56;;;;;;;14.03;7.83;;;14.20;99.90;;;;;;5072572;28;20659;-73
2023/06/12 11:48:24;;;;;;;12.43;7.77;;;14.20;99.90;;;;;;5054676;28;20206;-70
2023/06/12 11:50:53;;;;;;;12.03;7.97;;;14.30;99.90;;;;;;5072441;28;20176;-71
2023/06/12 11:53:21;;;;;;;14.60;8.07;;;14.30;99.90;;;;;;5072715;28;20641;-69
2023/06/12 11:55:56;;;;;;;11.67;7.20;;;14.30;99.90;;;;;;5072293;28;20195;-72
2023/06/12 11:58:39;;;;;;;14.40;7.77;;;14.20;99.90;;;;;;5072756;28;20221;-72
2023/06/12 12:01:23;;;;;;;9.40;6.73;;;14.20;99.90;;;;;;5072228;28;20175;-73
2023/06/12 12:03:52;;;;;;;13.13;8.03;;;14.10;99.90;;;;;;5072075;28;20207;-73
2023/06/12 12:06:19;;;;;;;10.03;7.77;;;14.10;99.90;;;;;;5072388;28;20168;-71
2023/06/12 12:08:55;;;;;;;11.67;7.93;;;14.00;99.90;;;;;;5072481;28;20214;-72
2023/06/12 12:11:28;;;;;;;10.13;7.27;;;14.00;99.90;;;;;;5054514;28;20171;-71
2023/06/12 12:14:04;;;;;;;11.07;7.60;;;14.00;99.90;;;;;;5072480;28;20199;-71
2023/06/12 12:16:42;;;;;;;17.10;7.43;;;14.10;99.90;;;;;;5072682;28;20243;-72
2023/06/12 12:19:25;;;;;;;10.70;7.80;;;14.00;99.90;;;;;;5072290;28;20227;-73
2023/06/12 12:21:54;;;;;;;14.50;7.97;;;13.90;99.90;;;;;;5071801;28;20545;-72
2023/06/12 12:24:22;;;;;;;12.43;8.13;;;13.80;99.90;;;;;;5072246;28;20269;-72
2023/06/12 12:26:51;;;;;;;11.57;7.13;;;13.80;99.90;;;;;;5072384;28;20268;-71
2023/06/12 12:29:19;;;;;;;12.57;7.13;;;13.80;99.90;;;;;;5053332;28;20188;-71
2023/06/12 12:31:46;;;;;;;12.90;8.17;;;13.70;99.90;;;;;;5070725;28;20187;-70
2023/06/12 12:34:14;;;;;;;13.83;8.37;;;13.70;99.90;;;;;;5072143;28;20683;-72
2023/06/12 12:36:43;;;;;;;14.60;8.33;;;13.70;99.90;;;;;;5072323;28;20316;-72
2023/06/12 12:39:11;;;;;;;14.17;8.03;;;13.80;99.90;;;;;;5071430;28;20229;-72
2023/06/12 12:41:38;;;;;;;12.53;7.57;;;13.80;99.90;;;;;;5072344;28;20183;-69
2023/06/12 12:44:05;;;;;;;9.50;7.67;;;13.80;99.90;;;;;;5070861;28;20698;-74
2023/06/12 12:46:34;;;;;;;11.07;7.50;;;13.80;99.90;;;;;;5072251;28;20219;-73
2023/06/12 12:49:01;;;;;;;10.27;8.03;;;13.70;99.90;;;;;;5053500;28;20660;-73
2023/06/12 12:51:29;;;;;;;11.90;8.20;;;13.80;99.90;;;;;;5071803;28;20185;-72
2023/06/12 12:53:56;;;;;;;13.73;8.77;;;13.80;99.90;;;;;;5071222;28;20180;-72
2023/06/12 12:56:24;;;;;;;12.93;8.70;;;13.80;99.90;;;;;;5071613;28;20183;-72
2023/06/12 12:58:51;;;;;;;10.63;9.30;;;13.80;99.90;;;;;;5071572;28;20531;-72